METAR AND TAF INFORMATION
METAR FOR UGTB
ADDS - METARS form results

(1238 UTC 23 January 2019)
Data provider http://aviationweather.gov/metar/data/
 
METAR text: UGTB 231230Z 15008KT CAVOK 07/00 Q1022 NOSIG
Conditions at: UGTB (TBILISI/NOVO-AL , GE) observed 1230 UTC 23 January 2019
Temperature: 7.0°C (45°F)
Dewpoint: 0.0°C (32°F) [RH = 61%]
Pressure (altimeter): 30.18 inches Hg (1022.0 mb)
Winds: from the SSE (150 degrees) at 9 MPH (8 knots; 4.1 m/s)
Visibility: 6 or more miles (10+ km)
Ceiling: ceiling and visibility are OK
Clouds: unknown
Weather: no significant weather observed at this time

METAR text: UGTB 231200Z 15009KT CAVOK 09/00 Q1022 NOSIG
Conditions at: UGTB (TBILISI/NOVO-AL , GE) observed 1200 UTC 23 January 2019
Temperature: 9.0°C (48°F)
Dewpoint: 0.0°C (32°F) [RH = 53%]
Pressure (altimeter): 30.18 inches Hg (1022.0 mb)
Winds: from the SSE (150 degrees) at 10 MPH (9 knots; 4.6 m/s)
Visibility: 6 or more miles (10+ km)
Ceiling: ceiling and visibility are OK
Clouds: unknown
Weather: no significant weather observed at this time

Forecast for: UGTB (TBILISI/NOVO-AL , GE)
Text: TAF UGTB 231100Z 2312/2412 16007KT CAVOK TX10/2312Z TNM00/2403Z
Forecast period: 1200 UTC 23 January 2019 to 1200 UTC 24 January 2019
Forecast type: FROM: standard forecast or significant change
Winds: from the SSE (160 degrees) at 8 MPH (7 knots; 3.6 m/s)
Visibility: 6 or more miles 10+ km)
Ceiling: unknown
Clouds: missing
Weather: no significant weather forecast for this period
Text: TEMPO 2317/2405 33010KT
Forecast period: 1700 UTC 23 January 2019 to 0500 UTC 24 January 2019
Forecast type: TEMPORARY: The following changes expected for less than half the time period
Winds: from the NNW (330 degrees) at 12 MPH (10 knots; 5.1 m/s)
Visibility: missing
Ceiling: unknown
Clouds: missing
Weather: no significant weather forecast for this period

 AIRPORT MAP

 RUNWAY INFORMATION

 AIRPORT FREQUENCIES
Type APP Name APP Frequency 127.2 MHZ
Type ATIS Name ATIS Frequency 132.8 MHZ
Type GND Name GND Frequency 119 MHZ
Type TWR Name TWR Frequency 128 MHZ

 AIRPORT NEAR NAVIGATION AIDS



2018 Air Astana Virtual Airline